LOWI

Innsbruck Airport

Innsbruck, Austria
METAR LOWI 221650Z 35013KT 330V030 9999 SCT060 SCT090 18/02 Q1021 NOSIG
Observed Flight Rules
Jun-22 @ 16:50 UTC (25 minutes ago) Visual Flight Rules
Wind Visibility Clouds
350° at 13 knots 10,000+ meters
  • Scattered at 6,000' AGL
  • Scattered at 9,000' AGL
Temperatures Readings
Current 18°C / 64°F
Dewpoint 2°C / 36°F
Humidity 34%
Altimeter 30.15" Hg
Pressure 1021 hPa
Elevation 581
METAR LOWI 221650Z 35013KT 330V030 9999 SCT060 SCT090 18/02 Q1021 NOSIG
Observed Flight Rules
Jun-22 @ 16:50 UTC
(25 minutes ago)
VFR
Wind Visibility
350° at 13 knots 10,000+ meters
Clouds
  • Scattered at 6,000' AGL
  • Scattered at 9,000' AGL
Temperature Dewpoint
18°C / 64°F 2°C / 36°F
Humidity Altimeter Pressure
34% 30.15" Hg 1021 hPa